createdAt,value
2016-09-10T00:00:00.369Z,0
2016-09-10T00:01:10.358Z,0
2016-09-10T00:02:20.048Z,0
2016-09-10T00:03:29.737Z,0
2016-09-10T00:04:39.756Z,0
2016-09-10T00:05:50.053Z,0
2016-09-10T00:07:00.043Z,0
2016-09-10T00:08:10.039Z,0
2016-09-10T00:09:20.343Z,0
2016-09-10T00:10:30.054Z,0
2016-09-10T00:11:39.524Z,0
2016-09-10T00:12:48.326Z,0
2016-09-10T00:13:57.123Z,0
2016-09-10T00:15:06.247Z,0
2016-09-10T00:16:15.991Z,0
2016-09-10T00:17:25.107Z,0
2016-09-10T00:18:34.252Z,0
2016-09-10T00:19:43.063Z,0
2016-09-10T00:20:52.485Z,0
2016-09-10T00:22:01.353Z,0
2016-09-10T00:23:10.835Z,0
2016-09-10T00:24:19.917Z,0
2016-09-10T00:25:29.328Z,0
2016-09-10T00:26:38.496Z,0
2016-09-10T00:27:47.599Z,0
2016-09-10T00:28:57.298Z,0
2016-09-10T00:30:07.006Z,0
2016-09-10T00:31:15.777Z,0
2016-09-10T00:32:24.872Z,0
2016-09-10T00:33:34.280Z,0
2016-09-10T00:34:43.681Z,0
2016-09-10T00:35:53.086Z,0
2016-09-10T00:37:02.368Z,0
2016-09-10T00:38:12.410Z,0
2016-09-10T00:39:21.509Z,0
2016-09-10T00:40:30.925Z,0
2016-09-10T00:41:40.339Z,0
2016-09-10T00:42:49.428Z,0
2016-09-10T00:43:58.245Z,0
2016-09-10T00:45:08.322Z,0
2016-09-10T00:46:17.451Z,0
2016-09-10T00:47:26.578Z,0
2016-09-10T00:48:35.394Z,0
2016-09-10T00:49:44.810Z,0
2016-09-10T00:50:53.944Z,0
2016-09-10T00:52:03.430Z,0
2016-09-10T00:53:12.608Z,0
2016-09-10T00:54:21.396Z,0
2016-09-10T00:55:30.183Z,0
2016-09-10T00:56:39.427Z,0
2016-09-10T00:57:48.868Z,0
2016-09-10T00:58:57.980Z,0
2016-09-10T01:00:07.761Z,0
2016-09-10T01:01:16.594Z,0
2016-09-10T01:02:25.674Z,0
2016-09-10T01:03:34.767Z,0
2016-09-10T01:04:43.863Z,0
2016-09-10T01:05:52.976Z,0
2016-09-10T01:07:01.825Z,0
2016-09-10T01:08:11.290Z,0
2016-09-10T01:09:20.591Z,0
2016-09-10T01:10:29.364Z,0
2016-09-10T01:11:38.782Z,0
2016-09-10T01:12:47.907Z,0
2016-09-10T01:13:57.296Z,0
2016-09-10T01:15:07.298Z,0
2016-09-10T01:16:16.403Z,0
2016-09-10T01:17:25.481Z,0
2016-09-10T01:18:35.141Z,0
2016-09-10T01:19:44.293Z,0
2016-09-10T01:20:54.431Z,0
2016-09-10T01:22:03.715Z,0
2016-09-10T01:23:12.854Z,0
2016-09-10T01:24:22.324Z,0
2016-09-10T01:25:31.166Z,0
2016-09-10T01:26:40.332Z,0
2016-09-10T01:27:49.720Z,0
2016-09-10T01:28:59.490Z,0
2016-09-10T01:30:09.855Z,0
2016-09-10T01:31:19.263Z,0
2016-09-10T01:32:28.048Z,0
2016-09-10T01:33:37.637Z,0
2016-09-10T01:34:47.150Z,0
2016-09-10T01:35:56.891Z,0
2016-09-10T01:37:05.681Z,0
2016-09-10T01:38:15.430Z,0
2016-09-10T01:39:24.234Z,0
2016-09-10T01:40:33.024Z,0
2016-09-10T01:41:41.893Z,0
2016-09-10T01:42:50.709Z,0
2016-09-10T01:44:00.436Z,0
2016-09-10T01:45:09.263Z,0
2016-09-10T01:46:18.052Z,0
2016-09-10T01:47:32.923Z,0
2016-09-10T01:48:41.803Z,0
2016-09-10T01:49:50.586Z,0
2016-09-10T01:51:00.548Z,0
2016-09-10T01:52:09.728Z,0
2016-09-10T01:53:19.811Z,0
2016-09-10T01:54:29.002Z,0
2016-09-10T01:55:37.758Z,0
2016-09-10T01:56:47.174Z,0
2016-09-10T01:57:56.265Z,0
2016-09-10T01:59:05.987Z,0
2016-09-10T02:00:15.429Z,0
2016-09-10T02:01:24.622Z,0
2016-09-10T02:02:33.712Z,0
2016-09-10T02:03:43.135Z,0
2016-09-10T02:04:52.836Z,0
2016-09-10T02:06:01.944Z,0
2016-09-10T02:07:11.251Z,0
2016-09-10T02:08:20.673Z,0
2016-09-10T02:09:30.678Z,0
2016-09-10T02:10:40.111Z,0
2016-09-10T02:11:49.550Z,0
2016-09-10T02:12:58.709Z,0
2016-09-10T02:14:08.127Z,0
2016-09-10T02:15:17.563Z,0
2016-09-10T02:16:26.993Z,0
2016-09-10T02:17:36.628Z,0
2016-09-10T02:18:45.745Z,0
2016-09-10T02:19:55.183Z,0
2016-09-10T02:21:04.544Z,0
2016-09-10T02:22:13.410Z,0
2016-09-10T02:23:22.481Z,0
2016-09-10T02:24:31.911Z,0
2016-09-10T02:25:41.358Z,0
2016-09-10T02:26:50.130Z,0
2016-09-10T02:27:58.938Z,0
2016-09-10T02:29:08.297Z,0
2016-09-10T02:30:17.456Z,0
2016-09-10T02:31:26.296Z,0
2016-09-10T02:32:35.699Z,0
2016-09-10T02:33:44.798Z,0
2016-09-10T02:34:54.198Z,0
2016-09-10T02:36:03.000Z,0
2016-09-10T02:37:12.296Z,0
2016-09-10T02:38:21.418Z,0
2016-09-10T02:39:30.836Z,0
2016-09-10T02:40:39.805Z,0
2016-09-10T02:41:49.210Z,0
2016-09-10T02:42:59.227Z,0
2016-09-10T02:44:08.661Z,0
2016-09-10T02:45:17.438Z,0
2016-09-10T02:46:26.832Z,0
2016-09-10T02:47:36.067Z,0
2016-09-10T02:48:45.772Z,0
2016-09-10T02:49:54.874Z,0
2016-09-10T02:51:04.373Z,0
2016-09-10T02:52:13.196Z,0
2016-09-10T02:53:22.047Z,0
2016-09-10T02:54:30.823Z,0
2016-09-10T02:55:39.922Z,0
2016-09-10T02:56:49.663Z,0
2016-09-10T02:57:58.763Z,0
2016-09-10T02:59:07.893Z,0
2016-09-10T03:00:17.316Z,0
2016-09-10T03:32:44.171Z,0
2016-09-10T03:33:53.259Z,0
2016-09-10T03:35:04.146Z,0
2016-09-10T03:36:14.294Z,0
2016-09-10T03:37:24.420Z,0
2016-09-10T03:38:33.816Z,0
2016-09-10T03:39:42.899Z,0
2016-09-10T03:40:51.994Z,0
2016-09-10T03:42:01.093Z,0
2016-09-10T03:43:10.497Z,0
2016-09-10T03:44:19.577Z,0
2016-09-10T03:45:29.282Z,0
2016-09-10T03:46:39.282Z,0
2016-09-10T03:47:48.815Z,0
2016-09-10T03:48:57.625Z,0
2016-09-10T03:50:07.415Z,0
2016-09-10T03:51:16.827Z,0
2016-09-10T03:52:26.355Z,0
2016-09-10T03:53:35.493Z,0
2016-09-10T03:54:44.865Z,0
2016-09-10T03:55:54.566Z,0
2016-09-10T03:57:04.643Z,0
2016-09-10T03:58:14.062Z,0
2016-09-10T03:59:23.769Z,0
2016-09-10T04:00:33.188Z,0
2016-09-10T04:01:41.964Z,0
2016-09-10T04:02:51.407Z,0
2016-09-10T04:04:00.791Z,0
2016-09-10T04:05:10.288Z,0
2016-09-10T04:06:19.049Z,0
2016-09-10T04:07:27.848Z,0
2016-09-10T04:08:36.942Z,0
2016-09-10T04:09:46.341Z,0
2016-09-10T04:10:55.723Z,0
2016-09-10T04:12:05.248Z,0
2016-09-10T04:13:14.644Z,0
2016-09-10T04:14:24.053Z,0
2016-09-10T04:15:33.829Z,0
2016-09-10T04:16:43.006Z,0
2016-09-10T04:17:52.150Z,0
2016-09-10T04:19:01.402Z,0
2016-09-10T04:20:10.910Z,0
2016-09-10T04:21:20.346Z,0
2016-09-10T04:22:29.525Z,5
2016-09-10T04:23:39.294Z,5
2016-09-10T04:24:48.697Z,5
2016-09-10T04:25:57.829Z,5
2016-09-10T04:27:07.301Z,5
2016-09-10T04:28:16.740Z,5
2016-09-10T04:29:27.044Z,5
2016-09-10T04:30:36.521Z,10
2016-09-10T04:31:46.300Z,10
2016-09-10T04:32:55.391Z,10
2016-09-10T04:34:04.924Z,10
2016-09-10T04:35:14.372Z,15
2016-09-10T04:36:23.979Z,15
2016-09-10T04:37:32.812Z,15
2016-09-10T04:38:42.196Z,20
2016-09-10T04:39:51.628Z,20
2016-09-10T04:41:01.064Z,20
2016-09-10T04:42:10.866Z,25
2016-09-10T04:43:20.574Z,35
2016-09-10T04:44:29.408Z,35
2016-09-10T04:45:38.806Z,35
2016-09-10T04:46:48.223Z,40
2016-09-10T04:47:57.331Z,40
2016-09-10T04:49:06.730Z,45
2016-09-10T04:50:16.189Z,50
2016-09-10T04:51:26.256Z,50
2016-09-10T04:52:35.334Z,55
2016-09-10T04:53:44.763Z,60
2016-09-10T04:54:53.839Z,65
2016-09-10T04:56:03.602Z,60
2016-09-10T04:57:13.020Z,50
2016-09-10T04:58:22.106Z,65
2016-09-10T04:59:31.185Z,75
2016-09-10T05:00:40.672Z,80
2016-09-10T05:01:49.448Z,80
2016-09-10T05:02:58.546Z,90
2016-09-10T05:04:08.346Z,90
2016-09-10T05:05:18.051Z,90
2016-09-10T05:06:27.508Z,90
2016-09-10T05:07:36.621Z,75
2016-09-10T05:08:45.691Z,65
2016-09-10T05:09:55.121Z,60
2016-09-10T05:11:04.540Z,60
2016-09-10T05:12:13.674Z,60
2016-09-10T05:13:22.527Z,65
2016-09-10T05:14:31.611Z,65
2016-09-10T05:15:40.407Z,65
2016-09-10T05:16:50.207Z,70
2016-09-10T05:17:59.450Z,70
2016-09-10T05:19:08.338Z,70
2016-09-10T05:20:17.420Z,70
2016-09-10T05:21:26.568Z,75
2016-09-10T05:22:36.286Z,75
2016-09-10T05:23:45.683Z,80
2016-09-10T05:24:54.828Z,80
2016-09-10T05:26:04.334Z,80
2016-09-10T05:27:13.181Z,85
2016-09-10T05:28:22.280Z,85
2016-09-10T05:29:31.376Z,85
2016-09-10T05:30:40.517Z,85
2016-09-10T05:31:49.920Z,85
2016-09-10T05:32:59.043Z,85
2016-09-10T05:34:08.858Z,90
2016-09-10T05:35:17.947Z,85
2016-09-10T05:36:27.390Z,95
2016-09-10T05:37:36.787Z,100
2016-09-10T05:38:46.246Z,100
2016-09-10T05:39:56.069Z,95
2016-09-10T05:41:05.207Z,95
2016-09-10T05:42:14.993Z,100
2016-09-10T05:43:24.401Z,100
2016-09-10T05:44:33.823Z,105
2016-09-10T05:45:42.604Z,105
2016-09-10T05:46:51.750Z,105
2016-09-10T05:48:00.839Z,105
2016-09-10T05:49:10.170Z,105
2016-09-10T05:50:18.986Z,105
2016-09-10T05:51:27.786Z,115
2016-09-10T05:52:37.937Z,115
2016-09-10T05:53:47.385Z,120
2016-09-10T05:54:56.806Z,110
2016-09-10T05:56:05.895Z,110
2016-09-10T05:57:15.264Z,110
2016-09-10T05:58:24.666Z,110
2016-09-10T05:59:34.126Z,110
2016-09-10T06:00:44.158Z,110
2016-09-10T06:01:53.399Z,115
2016-09-10T06:03:02.499Z,115
2016-09-10T06:04:11.324Z,115
2016-09-10T06:05:20.745Z,115
2016-09-10T06:06:29.859Z,115
2016-09-10T06:07:38.951Z,120
2016-09-10T06:08:48.648Z,115
2016-09-10T06:09:57.742Z,115
2016-09-10T06:11:07.160Z,120
2016-09-10T06:12:16.277Z,120
2016-09-10T06:13:25.380Z,120
2016-09-10T06:14:35.139Z,120
2016-09-10T06:15:43.926Z,120
2016-09-10T06:16:53.020Z,125
2016-09-10T06:18:02.436Z,125
2016-09-10T06:19:12.397Z,125
2016-09-10T06:20:22.196Z,125
2016-09-10T06:21:31.910Z,130
2016-09-10T06:22:40.998Z,135
2016-09-10T06:23:50.116Z,130
2016-09-10T06:24:59.699Z,130
2016-09-10T06:26:08.610Z,130
2016-09-10T06:27:17.899Z,135
2016-09-10T06:28:26.990Z,135
2016-09-10T06:29:36.237Z,135
2016-09-10T06:30:45.343Z,135
2016-09-10T06:31:54.425Z,140
2016-09-10T06:33:03.229Z,140
2016-09-10T06:34:12.010Z,140
2016-09-10T06:35:21.493Z,140
2016-09-10T06:36:31.488Z,140
2016-09-10T06:37:40.625Z,140
2016-09-10T06:38:50.313Z,140
2016-09-10T06:39:59.459Z,145
2016-09-10T06:41:08.995Z,145
2016-09-10T06:42:18.004Z,145
2016-09-10T06:43:27.076Z,145
2016-09-10T06:44:36.150Z,145
2016-09-10T06:45:45.230Z,145
2016-09-10T06:46:54.360Z,145
2016-09-10T06:48:03.584Z,150
2016-09-10T06:49:12.408Z,150
2016-09-10T06:50:21.504Z,150
2016-09-10T06:51:30.925Z,150
2016-09-10T06:52:40.051Z,150
2016-09-10T06:53:49.721Z,155
2016-09-10T06:54:58.526Z,155
2016-09-10T06:56:07.607Z,155
2016-09-10T06:57:16.420Z,155
2016-09-10T06:58:25.584Z,155
2016-09-10T06:59:34.998Z,155
2016-09-10T07:00:43.897Z,155
2016-09-10T07:01:53.590Z,155
2016-09-10T07:03:02.509Z,155
2016-09-10T07:04:12.080Z,160
2016-09-10T07:05:20.951Z,160
2016-09-10T07:06:30.387Z,160
2016-09-10T07:07:39.820Z,160
2016-09-10T07:08:48.932Z,160
2016-09-10T07:09:58.364Z,160
2016-09-10T07:11:07.484Z,160
2016-09-10T07:12:16.912Z,165
2016-09-10T07:13:25.698Z,165
2016-09-10T07:14:35.505Z,165
2016-09-10T07:15:44.919Z,170
2016-09-10T07:16:54.053Z,170
2016-09-10T07:18:03.020Z,165
2016-09-10T07:19:12.292Z,165
2016-09-10T07:20:21.760Z,165
2016-09-10T07:21:31.246Z,170
2016-09-10T07:22:40.387Z,170
2016-09-10T07:23:49.348Z,170
2016-09-10T07:24:58.439Z,170
2016-09-10T07:26:07.683Z,170
2016-09-10T07:27:17.137Z,170
2016-09-10T07:28:26.249Z,170
2016-09-10T07:29:35.799Z,170
2016-09-10T07:30:45.890Z,175
2016-09-10T07:31:55.322Z,175
2016-09-10T07:33:04.094Z,175
2016-09-10T07:34:13.304Z,175
2016-09-10T07:35:22.735Z,175
2016-09-10T07:36:32.146Z,175
2016-09-10T07:37:41.565Z,180
2016-09-10T07:38:50.956Z,180
2016-09-10T07:39:59.760Z,180
2016-09-10T07:41:09.187Z,180
2016-09-10T07:42:18.640Z,180
2016-09-10T07:43:27.409Z,180
2016-09-10T07:44:36.592Z,185
2016-09-10T07:45:45.913Z,185
2016-09-10T07:46:55.442Z,185
2016-09-10T07:48:04.982Z,185
2016-09-10T07:49:14.431Z,185
2016-09-10T07:50:23.848Z,185
2016-09-10T07:51:33.018Z,185
2016-09-10T07:52:42.464Z,185
2016-09-10T07:53:51.329Z,185
2016-09-10T07:55:01.144Z,185
2016-09-10T07:56:10.308Z,185
2016-09-10T07:57:19.436Z,185
2016-09-10T07:58:28.860Z,185
2016-09-10T07:59:37.936Z,185
2016-09-10T08:00:47.341Z,190
2016-09-10T08:01:56.120Z,190
2016-09-10T08:03:05.443Z,190
2016-09-10T08:04:14.730Z,190
2016-09-10T08:05:24.200Z,190
2016-09-10T08:06:34.027Z,190
2016-09-10T08:07:43.147Z,190
2016-09-10T08:08:52.236Z,190
2016-09-10T08:10:01.534Z,195
2016-09-10T08:11:11.735Z,195
2016-09-10T08:12:20.563Z,195
2016-09-10T08:13:29.714Z,195
2016-09-10T08:14:38.590Z,195
2016-09-10T08:15:48.740Z,195
2016-09-10T08:16:57.867Z,195
2016-09-10T08:18:07.644Z,195
2016-09-10T08:19:16.776Z,200
2016-09-10T08:20:25.889Z,200
2016-09-10T08:21:34.752Z,200
2016-09-10T08:22:43.926Z,200
2016-09-10T08:23:53.699Z,200
2016-09-10T08:25:02.854Z,200
2016-09-10T08:26:12.934Z,205
2016-09-10T08:27:22.667Z,205
2016-09-10T08:28:31.779Z,205
2016-09-10T08:29:41.867Z,205
2016-09-10T08:30:51.304Z,205
2016-09-10T08:32:00.706Z,205
2016-09-10T08:33:09.601Z,205
2016-09-10T08:34:18.427Z,205
2016-09-10T08:35:27.606Z,205
2016-09-10T08:36:36.425Z,210
2016-09-10T08:37:45.896Z,210
2016-09-10T08:38:55.011Z,210
2016-09-10T08:40:04.848Z,210
2016-09-10T08:41:13.980Z,210
2016-09-10T08:42:24.019Z,210
2016-09-10T08:43:33.437Z,210
2016-09-10T08:44:42.533Z,210
2016-09-10T08:45:52.306Z,210
2016-09-10T08:47:02.370Z,215
2016-09-10T08:48:11.582Z,210
2016-09-10T08:49:20.714Z,215
2016-09-10T08:50:30.145Z,215
2016-09-10T08:51:38.992Z,215
2016-09-10T08:52:48.238Z,215
2016-09-10T08:53:57.017Z,215
2016-09-10T08:55:06.595Z,215
2016-09-10T08:56:15.698Z,215
2016-09-10T08:57:25.179Z,220
2016-09-10T08:58:34.314Z,220
2016-09-10T08:59:43.734Z,220
2016-09-10T09:00:53.195Z,220
2016-09-10T09:02:02.337Z,220
2016-09-10T09:03:11.450Z,220
2016-09-10T09:04:20.566Z,220
2016-09-10T09:05:29.810Z,220
2016-09-10T09:06:38.949Z,220
2016-09-10T09:07:48.620Z,220
2016-09-10T09:08:57.405Z,225
2016-09-10T09:10:07.260Z,225
2016-09-10T09:11:16.073Z,225
2016-09-10T09:12:25.201Z,225
2016-09-10T09:13:35.125Z,225
2016-09-10T09:14:44.565Z,225
2016-09-10T09:15:53.684Z,225
2016-09-10T09:17:03.100Z,225
2016-09-10T09:18:12.896Z,230
2016-09-10T09:19:21.746Z,230
2016-09-10T09:20:30.901Z,230
2016-09-10T09:21:40.330Z,230
2016-09-10T09:22:49.521Z,230
2016-09-10T09:23:58.615Z,230
2016-09-10T09:25:08.749Z,230
2016-09-10T09:26:17.865Z,230
2016-09-10T09:27:27.606Z,230
2016-09-10T09:28:36.761Z,230
2016-09-10T09:29:45.883Z,235
2016-09-10T09:30:54.982Z,235
2016-09-10T09:32:04.178Z,235
2016-09-10T09:33:13.358Z,235
2016-09-10T09:34:22.476Z,235
2016-09-10T09:35:31.566Z,235
2016-09-10T09:36:40.656Z,240
2016-09-10T09:37:50.388Z,240
2016-09-10T09:38:59.799Z,240
2016-09-10T09:40:09.645Z,240
2016-09-10T09:41:19.104Z,240
2016-09-10T09:42:27.886Z,240
2016-09-10T09:43:36.982Z,240
2016-09-10T09:44:47.137Z,240
2016-09-10T09:45:57.407Z,240
2016-09-10T09:47:06.620Z,245
2016-09-10T09:48:16.045Z,240
2016-09-10T09:49:25.122Z,240
2016-09-10T09:50:35.145Z,245
2016-09-10T09:51:43.945Z,240
2016-09-10T09:52:52.831Z,240
2016-09-10T09:54:01.729Z,240
2016-09-10T09:55:12.646Z,245
2016-09-10T09:56:22.592Z,245
2016-09-10T09:57:32.014Z,245
2016-09-10T09:58:41.195Z,245
2016-09-10T09:59:51.259Z,245
2016-09-10T10:01:00.597Z,245
2016-09-10T10:02:10.111Z,245
2016-09-10T10:03:19.352Z,245
2016-09-10T10:04:28.947Z,245
2016-09-10T10:05:38.046Z,245
2016-09-10T10:06:47.474Z,245
2016-09-10T10:07:56.878Z,245
2016-09-10T10:09:06.682Z,245
2016-09-10T10:10:15.511Z,245
2016-09-10T10:11:25.164Z,245
2016-09-10T10:12:34.691Z,245
2016-09-10T10:13:43.826Z,245
2016-09-10T10:14:52.979Z,245
2016-09-10T10:16:02.521Z,245
2016-09-10T10:17:12.629Z,245
2016-09-10T10:18:22.445Z,245
2016-09-10T10:19:32.091Z,245
2016-09-10T10:20:41.487Z,245
2016-09-10T10:21:50.885Z,250
2016-09-10T10:22:59.709Z,250
2016-09-10T10:24:08.851Z,245
2016-09-10T10:25:18.593Z,245
2016-09-10T10:26:28.572Z,245
2016-09-10T10:27:38.300Z,245
2016-09-10T10:28:47.083Z,245
2016-09-10T10:29:56.277Z,250
2016-09-10T10:31:05.849Z,255
2016-09-10T10:32:15.035Z,250
2016-09-10T10:33:24.129Z,250
2016-09-10T10:34:33.525Z,250
2016-09-10T10:35:42.690Z,250
2016-09-10T10:36:52.109Z,250
2016-09-10T10:38:01.189Z,255
2016-09-10T10:39:11.022Z,250
2016-09-10T10:40:20.123Z,250
2016-09-10T10:41:29.645Z,250
2016-09-10T10:42:38.752Z,250
2016-09-10T10:43:47.858Z,245
2016-09-10T10:44:56.968Z,245
2016-09-10T10:46:07.309Z,245
2016-09-10T10:47:16.786Z,250
2016-09-10T10:48:26.211Z,250
2016-09-10T10:49:35.005Z,250
2016-09-10T10:50:44.148Z,250
2016-09-10T10:51:53.684Z,250
2016-09-10T10:53:02.882Z,250
2016-09-10T10:54:12.669Z,250
2016-09-10T10:55:21.868Z,255
2016-09-10T10:56:30.974Z,255
2016-09-10T10:57:40.084Z,255
2016-09-10T10:58:50.154Z,255
2016-09-10T10:59:59.659Z,255
2016-09-10T11:01:08.943Z,255
2016-09-10T11:02:18.692Z,255
2016-09-10T11:03:28.109Z,255
2016-09-10T11:04:36.923Z,255
2016-09-10T11:05:46.509Z,255
2016-09-10T11:06:55.909Z,255
2016-09-10T11:08:05.646Z,255
2016-09-10T11:09:15.663Z,255
2016-09-10T11:10:25.073Z,255
2016-09-10T11:11:34.186Z,255
2016-09-10T11:12:43.587Z,255
2016-09-10T11:13:52.667Z,255
2016-09-10T11:15:02.622Z,255
2016-09-10T11:16:12.381Z,255
2016-09-10T11:17:22.107Z,260
2016-09-10T11:18:31.349Z,260
2016-09-10T11:19:40.170Z,260
2016-09-10T11:20:49.305Z,260
2016-09-10T11:21:58.763Z,260
2016-09-10T11:23:08.606Z,265
2016-09-10T11:24:18.042Z,260
2016-09-10T11:25:27.794Z,260
2016-09-10T11:26:37.064Z,265
2016-09-10T11:27:46.167Z,265
2016-09-10T11:28:55.296Z,265
2016-09-10T11:30:05.089Z,260
2016-09-10T11:31:15.135Z,260
2016-09-10T11:32:24.605Z,265
2016-09-10T11:33:33.778Z,265
2016-09-10T11:34:42.586Z,265
2016-09-10T11:35:52.670Z,265
2016-09-10T11:37:01.856Z,265
2016-09-10T11:38:11.504Z,265
2016-09-10T11:39:20.923Z,265
2016-09-10T11:40:30.349Z,265
2016-09-10T11:41:40.536Z,265
2016-09-10T11:42:49.974Z,265
2016-09-10T11:43:58.793Z,265
2016-09-10T11:45:08.248Z,265
2016-09-10T11:46:17.654Z,270
2016-09-10T11:47:26.465Z,270
2016-09-10T11:48:35.870Z,270
2016-09-10T11:49:45.307Z,270
2016-09-10T11:50:55.039Z,275
2016-09-10T11:52:04.541Z,275
2016-09-10T11:53:13.451Z,280
2016-09-10T11:54:22.862Z,275
2016-09-10T11:55:32.622Z,275
2016-09-10T11:56:41.949Z,275
2016-09-10T11:57:51.236Z,275
2016-09-10T11:59:00.175Z,275
2016-09-10T12:00:10.405Z,275
2016-09-10T12:01:20.153Z,275
2016-09-10T12:02:29.870Z,275
2016-09-10T12:03:39.364Z,275
2016-09-10T12:04:48.794Z,275
2016-09-10T12:05:57.597Z,280
2016-09-10T12:07:07.057Z,280
2016-09-10T12:08:16.485Z,280
2016-09-10T12:09:25.586Z,280
2016-09-10T12:10:35.021Z,280
2016-09-10T12:11:43.828Z,275
2016-09-10T12:12:53.828Z,275
2016-09-10T12:14:03.384Z,275
2016-09-10T12:15:12.792Z,275
2016-09-10T12:16:21.602Z,275
2016-09-10T12:17:30.724Z,275
2016-09-10T12:18:39.545Z,270
2016-09-10T12:19:48.974Z,270
2016-09-10T12:20:58.512Z,275
2016-09-10T12:22:08.083Z,275
2016-09-10T12:23:17.271Z,275
2016-09-10T12:24:26.456Z,275
2016-09-10T12:25:35.755Z,270
2016-09-10T12:26:45.467Z,270
2016-09-10T12:27:54.864Z,275
2016-09-10T12:29:04.170Z,270
2016-09-10T12:30:13.958Z,265
2016-09-10T12:31:23.812Z,265
2016-09-10T12:32:33.341Z,260
2016-09-10T12:33:42.195Z,260
2016-09-10T12:34:51.013Z,260
2016-09-10T12:35:59.823Z,255
2016-09-10T12:37:08.816Z,255
2016-09-10T12:38:17.647Z,255
2016-09-10T12:39:26.746Z,260
2016-09-10T12:40:36.348Z,260
2016-09-10T12:41:45.141Z,260
2016-09-10T12:42:54.258Z,260
2016-09-10T12:44:04.227Z,260
2016-09-10T12:45:13.386Z,255
2016-09-10T12:46:23.161Z,250
2016-09-10T12:47:31.948Z,250
2016-09-10T12:48:41.687Z,250
2016-09-10T12:49:51.233Z,240
2016-09-10T12:51:00.591Z,230
2016-09-10T12:52:10.065Z,245
2016-09-10T12:53:19.462Z,245
2016-09-10T12:54:28.627Z,250
2016-09-10T12:55:37.735Z,250
2016-09-10T12:56:47.239Z,250
2016-09-10T12:57:56.391Z,250
2016-09-10T12:59:05.173Z,250
2016-09-10T13:00:14.870Z,245
2016-09-10T13:01:23.659Z,245
2016-09-10T13:02:32.453Z,250
2016-09-10T13:03:42.188Z,250
2016-09-10T13:04:51.307Z,245
2016-09-10T13:06:00.796Z,245
2016-09-10T13:07:10.217Z,245
2016-09-10T13:08:19.649Z,245
2016-09-10T13:09:29.119Z,240
2016-09-10T13:10:38.217Z,240
2016-09-10T13:11:47.069Z,240
2016-09-10T13:12:56.835Z,245
2016-09-10T13:14:06.371Z,245
2016-09-10T13:15:15.847Z,245
2016-09-10T13:16:25.263Z,245
2016-09-10T13:17:34.417Z,240
2016-09-10T13:18:43.543Z,240
2016-09-10T13:19:52.355Z,240
2016-09-10T13:21:02.381Z,240
2016-09-10T13:22:12.243Z,240
2016-09-10T13:23:21.351Z,235
2016-09-10T13:24:30.456Z,240
2016-09-10T13:25:40.317Z,235
2016-09-10T13:26:49.121Z,235
2016-09-10T13:27:57.954Z,235
2016-09-10T13:29:07.705Z,235
2016-09-10T13:30:16.833Z,230
2016-09-10T13:31:26.239Z,235
2016-09-10T13:32:35.026Z,235
2016-09-10T13:33:44.798Z,235
2016-09-10T13:34:54.275Z,230
2016-09-10T13:36:03.684Z,230
2016-09-10T13:37:13.192Z,230
2016-09-10T13:38:22.623Z,230
2016-09-10T13:39:32.073Z,225
2016-09-10T13:40:41.197Z,225
2016-09-10T13:41:50.295Z,225
2016-09-10T13:43:00.001Z,225
2016-09-10T13:44:09.130Z,220
2016-09-10T13:45:18.262Z,215
2016-09-10T13:46:27.978Z,220
2016-09-10T13:47:36.750Z,225
2016-09-10T13:48:45.860Z,225
2016-09-10T13:49:54.651Z,225
2016-09-10T13:51:03.434Z,225
2016-09-10T13:52:12.560Z,220
2016-09-10T13:53:21.699Z,220
2016-09-10T13:54:30.803Z,215
2016-09-10T13:55:39.905Z,215
2016-09-10T13:56:49.033Z,215
2016-09-10T13:57:58.146Z,215
2016-09-10T13:59:07.870Z,215
2016-09-10T14:00:17.712Z,210
2016-09-10T14:01:27.139Z,210
2016-09-10T14:02:36.220Z,205
2016-09-10T14:03:45.083Z,205
2016-09-10T14:04:54.502Z,205
2016-09-10T14:06:03.310Z,200
2016-09-10T14:07:13.068Z,200
2016-09-10T14:08:22.477Z,200
2016-09-10T14:09:31.588Z,205
2016-09-10T14:10:40.996Z,205
2016-09-10T14:11:49.805Z,200
2016-09-10T14:12:59.374Z,200
2016-09-10T14:14:08.823Z,200
2016-09-10T14:15:18.358Z,200
2016-09-10T14:16:28.057Z,195
2016-09-10T14:17:37.774Z,195
2016-09-10T14:18:46.939Z,195
2016-09-10T14:19:56.349Z,195
2016-09-10T14:21:05.478Z,195
2016-09-10T14:22:14.936Z,190
2016-09-10T14:23:24.925Z,190
2016-09-10T14:24:34.018Z,190
2016-09-10T14:25:43.126Z,190
2016-09-10T14:26:52.944Z,190
2016-09-10T14:28:02.071Z,185
2016-09-10T14:29:10.846Z,185
2016-09-10T14:30:20.614Z,185
2016-09-10T14:31:30.361Z,185
2016-09-10T14:32:39.191Z,180
2016-09-10T14:33:48.417Z,180
2016-09-10T14:34:57.549Z,180
2016-09-10T14:36:07.270Z,180
2016-09-10T14:37:16.699Z,180
2016-09-10T14:38:25.491Z,175
2016-09-10T14:39:34.891Z,175
2016-09-10T14:40:44.941Z,175
2016-09-10T14:41:54.092Z,170
2016-09-10T14:43:03.206Z,170
2016-09-10T14:44:12.378Z,170
2016-09-10T14:45:21.797Z,170
2016-09-10T14:46:31.888Z,170
2016-09-10T14:47:40.744Z,170
2016-09-10T14:48:49.914Z,170
2016-09-10T14:49:59.635Z,165
2016-09-10T14:51:08.487Z,165
2016-09-10T14:52:17.576Z,165
2016-09-10T14:53:26.950Z,160
2016-09-10T14:54:36.365Z,160
2016-09-10T14:55:45.150Z,160
2016-09-10T14:56:54.280Z,160
2016-09-10T14:58:03.918Z,160
2016-09-10T14:59:12.825Z,155
2016-09-10T15:00:22.170Z,155
2016-09-10T15:01:31.570Z,155
2016-09-10T15:02:40.353Z,155
2016-09-10T15:03:49.982Z,155
2016-09-10T15:04:59.155Z,150
2016-09-10T15:06:12.931Z,150
2016-09-10T15:07:22.435Z,150
2016-09-10T15:08:31.545Z,145
2016-09-10T15:09:40.729Z,145
2016-09-10T15:10:49.916Z,145
2016-09-10T15:11:59.033Z,145
2016-09-10T15:13:08.283Z,145
2016-09-10T15:14:17.211Z,140
2016-09-10T15:15:26.503Z,140
2016-09-10T15:16:35.915Z,140
2016-09-10T15:17:45.123Z,145
2016-09-10T15:18:54.876Z,140
2016-09-10T15:20:04.579Z,135
2016-09-10T15:21:14.125Z,135
2016-09-10T15:22:23.895Z,135
2016-09-10T15:23:33.029Z,130
2016-09-10T15:24:42.115Z,135
2016-09-10T15:25:51.850Z,135
2016-09-10T15:27:01.003Z,130
2016-09-10T15:28:10.170Z,130
2016-09-10T15:29:19.634Z,125
2016-09-10T15:30:28.790Z,130
2016-09-10T15:31:38.338Z,125
2016-09-10T15:32:47.767Z,130
2016-09-10T15:33:56.577Z,120
2016-09-10T15:35:05.394Z,120
2016-09-10T15:36:15.163Z,125
2016-09-10T15:37:24.284Z,120
2016-09-10T15:38:33.498Z,120
2016-09-10T15:39:42.907Z,120
2016-09-10T15:40:52.645Z,115
2016-09-10T15:42:01.618Z,115
2016-09-10T15:43:10.543Z,110
2016-09-10T15:44:20.466Z,110
2016-09-10T15:45:29.277Z,110
2016-09-10T15:46:38.066Z,110
2016-09-10T15:47:46.898Z,115
2016-09-10T15:48:56.364Z,110
2016-09-10T15:50:05.603Z,110
2016-09-10T15:51:15.038Z,105
2016-09-10T15:52:24.116Z,105
2016-09-10T15:53:33.325Z,105
2016-09-10T15:54:42.449Z,100
2016-09-10T15:55:51.561Z,100
2016-09-10T15:57:00.965Z,100
2016-09-10T15:58:10.688Z,95
2016-09-10T15:59:19.794Z,95
2016-09-10T16:00:29.022Z,95
2016-09-10T16:01:38.495Z,90
2016-09-10T16:02:48.254Z,90
2016-09-10T16:03:57.366Z,90
2016-09-10T16:05:07.050Z,90
2016-09-10T16:06:15.896Z,85
2016-09-10T16:07:25.638Z,85
2016-09-10T16:08:34.447Z,85
2016-09-10T16:09:43.821Z,80
2016-09-10T16:10:53.260Z,80
2016-09-10T16:12:02.460Z,80
2016-09-10T16:13:12.214Z,75
2016-09-10T16:14:21.395Z,75
2016-09-10T16:15:30.894Z,70
2016-09-10T16:16:39.741Z,70
2016-09-10T16:17:48.862Z,70
2016-09-10T16:18:57.965Z,65
2016-09-10T16:20:07.571Z,65
2016-09-10T16:21:16.957Z,65
2016-09-10T16:22:26.077Z,65
2016-09-10T16:23:35.828Z,60
2016-09-10T16:24:45.773Z,60
2016-09-10T16:25:55.182Z,60
2016-09-10T16:27:04.638Z,60
2016-09-10T16:28:13.448Z,60
2016-09-10T16:29:22.283Z,60
2016-09-10T16:30:31.572Z,55
2016-09-10T16:31:41.008Z,55
2016-09-10T16:32:50.127Z,55
2016-09-10T16:33:59.236Z,50
2016-09-10T16:35:09.154Z,50
2016-09-10T16:36:18.614Z,50
2016-09-10T16:37:27.716Z,50
2016-09-10T16:38:36.859Z,45
2016-09-10T16:39:45.639Z,45
2016-09-10T16:40:55.050Z,45
2016-09-10T16:42:04.052Z,40
2016-09-10T16:43:13.202Z,40
2016-09-10T16:44:23.398Z,40
2016-09-10T16:45:32.513Z,35